Time;durP1;ratioP1;P1;durP2;ratioP2;P2;SDS_P1;SDS_P2;PMS_P1;PMS_P2;Temp;Humidity;BMP_temperature;BMP_pressure;BME280_temperature;BME280_humidity;BME280_pressure;Samples;Min_cycle;Max_cycle;Signal;HPM_P1;HPM_P2
2021/01/30 00:03:21;;;;;;;1.47;0.80;;;11.40;99.90;;;;;;20516831;28;20255;-75
2021/01/30 00:13:25;;;;;;;0.83;0.83;;;11.60;99.90;;;;;;20515000;28;20208;-76
2021/01/30 00:23:30;;;;;;;0.60;0.50;;;11.40;99.90;;;;;;20533806;28;20523;-76
2021/01/30 00:33:35;;;;;;;6.00;0.47;;;11.10;99.90;;;;;;20530423;28;20203;-76
2021/01/30 00:43:38;;;;;;;1.97;0.87;;;11.10;99.90;;;;;;20532707;28;20223;-76
2021/01/30 00:53:42;;;;;;;1.57;1.10;;;11.20;99.90;;;;;;20514792;28;20635;-77
2021/01/30 01:03:45;;;;;;;1.03;0.87;;;11.30;99.90;;;;;;20533266;28;20236;-78
2021/01/30 01:13:48;;;;;;;0.90;0.67;;;11.40;99.90;;;;;;20527622;28;20200;-77
2021/01/30 01:23:51;;;;;;;0.60;0.60;;;11.40;99.90;;;;;;20548576;28;20370;-76
2021/01/30 01:33:55;;;;;;;1.07;0.97;;;11.40;99.90;;;;;;20527542;28;20628;-76
2021/01/30 01:43:57;;;;;;;0.53;0.50;;;11.10;99.90;;;;;;20473210;28;20248;-76
2021/01/30 01:54:04;;;;;;;14.83;1.13;;;11.20;99.90;;;;;;20524910;28;20219;-77
2021/01/30 02:04:10;;;;;;;0.37;0.37;;;11.30;99.90;;;;;;20549138;28;20760;-76
2021/01/30 02:14:14;;;;;;;1.03;0.93;;;11.20;99.90;;;;;;20532812;28;20203;-77
2021/01/30 02:24:55;;;;;;;1.23;1.13;;;11.10;99.90;;;;;;20547724;28;20322;-76
2021/01/30 02:46:22;;;;;;;0.40;0.40;;;11.10;99.90;;;;;;20540684;28;20283;-76
2021/01/30 02:56:32;;;;;;;0.87;0.87;;;11.10;99.90;;;;;;20540512;28;20665;-76
2021/01/30 03:06:45;;;;;;;1.13;1.03;;;10.90;99.90;;;;;;20545287;28;20236;-76
2021/01/30 03:16:50;;;;;;;0.50;0.23;;;10.70;99.90;;;;;;20526649;28;20259;-76
2021/01/30 03:26:54;;;;;;;0.60;0.50;;;10.90;99.90;;;;;;20543639;28;20625;-76
2021/01/30 03:36:57;;;;;;;0.37;0.37;;;10.80;99.90;;;;;;20496086;28;20646;-75
2021/01/30 03:47:01;;;;;;;0.87;0.73;;;10.80;99.90;;;;;;20460937;28;20785;-77
2021/01/30 03:57:05;;;;;;;1.53;0.83;;;11.10;99.90;;;;;;20531146;28;20644;-75
2021/01/30 04:07:09;;;;;;;0.67;0.67;;;10.50;99.90;;;;;;20536039;23;20354;-71
2021/01/30 04:17:12;;;;;;;0.83;0.83;;;10.30;99.90;;;;;;20536898;28;20287;-71
2021/01/30 04:27:16;;;;;;;0.33;0.33;;;10.00;99.90;;;;;;20534008;28;20220;-71
2021/01/30 04:37:25;;;;;;;1.23;0.63;;;10.20;99.90;;;;;;20533741;28;20243;-70
2021/01/30 04:47:42;;;;;;;0.20;0.10;;;10.50;99.90;;;;;;20444745;28;20224;-70
2021/01/30 04:57:57;;;;;;;0.30;0.30;;;13.00;99.90;;;;;;20532896;28;20208;-71
2021/01/30 05:08:06;;;;;;;0.20;0.10;;;14.10;99.90;;;;;;20531908;28;20231;-72
2021/01/30 05:18:15;;;;;;;0.27;0.17;;;14.10;99.90;;;;;;20534567;28;20208;-71
2021/01/30 05:28:30;;;;;;;0.93;0.87;;;14.50;99.90;;;;;;20531983;28;20431;-73
2021/01/30 05:38:48;;;;;;;0.30;0.20;;;14.60;99.90;;;;;;20532672;28;20310;-74
2021/01/30 05:48:53;;;;;;;0.73;0.30;;;14.50;99.90;;;;;;20514942;28;20220;-72
2021/01/30 05:58:57;;;;;;;0.30;0.20;;;14.70;99.90;;;;;;20460889;28;20196;-70
2021/01/30 06:09:08;;;;;;;0.97;0.33;;;14.60;99.90;;;;;;20464851;28;20233;-70
2021/01/30 06:19:17;;;;;;;0.90;0.40;;;14.30;99.90;;;;;;20445695;28;20212;-71
2021/01/30 06:29:35;;;;;;;0.53;0.53;;;14.60;99.90;;;;;;20464934;28;20224;-74
2021/01/30 06:39:42;;;;;;;0.37;0.37;;;15.10;99.90;;;;;;20462299;28;20193;-71
2021/01/30 06:49:48;;;;;;;1.27;0.73;;;14.10;99.90;;;;;;20468029;28;20452;-68
2021/01/30 06:59:54;;;;;;;0.30;0.30;;;14.30;99.90;;;;;;20540172;28;20236;-69
2021/01/30 07:10:14;;;;;;;0.23;0.17;;;14.80;99.90;;;;;;20523030;28;20627;-71
2021/01/30 07:20:28;;;;;;;0.20;0.20;;;14.90;99.90;;;;;;20540849;28;20724;-71
2021/01/30 07:30:42;;;;;;;0.83;0.20;;;15.40;99.90;;;;;;20537200;28;20232;-70
2021/01/30 07:40:52;;;;;;;1.00;0.70;;;15.60;99.90;;;;;;20454764;28;20212;-71
2021/01/30 07:51:01;;;;;;;0.20;0.20;;;15.80;99.90;;;;;;20487712;28;20378;-72
2021/01/30 08:01:21;;;;;;;0.83;0.60;;;15.80;99.90;;;;;;20537453;28;20232;-79
2021/01/30 08:11:32;;;;;;;0.73;0.60;;;15.90;99.90;;;;;;20542638;28;20371;-80
2021/01/30 08:21:42;;;;;;;0.93;0.57;;;15.80;99.90;;;;;;20521738;28;20628;-78
2021/01/30 08:31:49;;;;;;;1.23;1.13;;;15.50;99.90;;;;;;20537635;28;20211;-77
2021/01/30 08:41:57;;;;;;;0.97;0.60;;;15.30;99.90;;;;;;20524149;28;20207;-76
2021/01/30 08:52:21;;;;;;;0.20;0.10;;;15.80;99.90;;;;;;20504645;28;20197;-74
2021/01/30 09:02:50;;;;;;;0.40;0.40;;;16.60;99.90;;;;;;20454528;28;20814;-75
2021/01/30 09:12:57;;;;;;;0.47;0.40;;;16.90;99.90;;;;;;20486144;28;20215;-75
2021/01/30 09:23:19;;;;;;;0.40;0.20;;;17.40;99.90;;;;;;20462929;28;20720;-75
2021/01/30 09:33:27;;;;;;;0.27;0.27;;;17.60;99.90;;;;;;20460931;28;20772;-73
2021/01/30 09:43:30;;;;;;;0.30;0.30;;;17.60;99.90;;;;;;20463698;28;20224;-73
2021/01/30 09:53:40;;;;;;;0.77;0.50;;;17.60;99.90;;;;;;20515813;28;20205;-72
2021/01/30 10:03:43;;;;;;;0.20;0.13;;;17.40;99.90;;;;;;20540361;28;20231;-74
2021/01/30 10:13:49;;;;;;;0.53;0.40;;;17.20;99.90;;;;;;20522770;28;20662;-73
2021/01/30 10:23:53;;;;;;;0.20;0.10;;;17.20;99.90;;;;;;20521468;28;20349;-76
2021/01/30 10:34:02;;;;;;;0.20;0.17;;;17.50;99.90;;;;;;20521680;28;20196;-72
2021/01/30 10:44:06;;;;;;;0.20;0.17;;;17.10;99.90;;;;;;20536205;28;20331;-72
2021/01/30 10:54:28;;;;;;;2.00;0.63;;;16.70;99.90;;;;;;20459332;28;20193;-73
2021/01/30 11:04:31;;;;;;;0.20;0.20;;;16.80;99.90;;;;;;20455255;28;20275;-69
2021/01/30 11:14:36;;;;;;;0.30;0.30;;;16.60;99.90;;;;;;20473915;28;20204;-73
2021/01/30 11:24:46;;;;;;;0.70;0.70;;;17.60;99.90;;;;;;20525714;28;20238;-75
2021/01/30 11:34:59;;;;;;;0.30;0.30;;;18.10;99.90;;;;;;20476265;28;20204;-69
2021/01/30 11:45:10;;;;;;;9.83;0.30;;;18.00;99.90;;;;;;20451776;28;20232;-72
2021/01/30 11:55:15;;;;;;;0.70;0.23;;;18.70;99.90;;;;;;20516414;28;20266;-73
2021/01/30 12:05:18;;;;;;;0.20;0.10;;;18.50;99.90;;;;;;20527577;28;20231;-73
2021/01/30 12:15:22;;;;;;;0.43;0.40;;;19.40;99.90;;;;;;20512315;28;20188;-76
2021/01/30 12:25:25;;;;;;;0.20;0.00;;;20.10;99.90;;;;;;20525324;28;20331;-75
2021/01/30 12:35:32;;;;;;;0.53;0.10;;;21.00;99.90;;;;;;20513126;28;20775;-71
2021/01/30 12:45:35;;;;;;;0.20;0.10;;;20.90;99.90;;;;;;20527040;28;20696;-73
2021/01/30 12:55:40;;;;;;;0.30;0.10;;;21.10;99.90;;;;;;20527895;28;20544;-71
2021/01/30 13:05:44;;;;;;;0.20;0.13;;;22.00;99.90;;;;;;20517266;28;20231;-73
2021/01/30 13:15:48;;;;;;;0.20;0.20;;;21.30;99.90;;;;;;20544054;28;20234;-69
2021/01/30 13:25:51;;;;;;;0.40;0.27;;;19.90;99.90;;;;;;20543458;28;20391;-69
2021/01/30 13:35:55;;;;;;;0.20;0.20;;;20.10;99.90;;;;;;20542473;28;20267;-74
2021/01/30 13:45:57;;;;;;;1.10;0.87;;;20.00;99.90;;;;;;20540783;28;20266;-76
2021/01/30 13:56:05;;;;;;;1.43;0.60;;;19.20;99.90;;;;;;20468146;28;20811;-73
2021/01/30 14:06:08;;;;;;;0.30;0.20;;;19.20;99.90;;;;;;20459857;28;20229;-72
2021/01/30 14:16:12;;;;;;;0.20;0.20;;;19.90;99.90;;;;;;20442095;28;20252;-74
2021/01/30 14:26:15;;;;;;;0.67;0.30;;;20.40;99.90;;;;;;20457662;28;20555;-69
2021/01/30 14:36:25;;;;;;;1.80;0.30;;;19.70;99.90;;;;;;20441025;28;20224;-68
2021/01/30 14:46:34;;;;;;;0.20;0.00;;;20.20;99.90;;;;;;20457819;28;20205;-72
2021/01/30 14:56:38;;;;;;;0.20;0.00;;;19.60;99.90;;;;;;20533238;28;20239;-71
2021/01/30 15:06:41;;;;;;;0.47;0.33;;;20.40;99.90;;;;;;20535348;28;21167;-69
2021/01/30 15:16:47;;;;;;;0.20;0.00;;;21.60;99.90;;;;;;20531626;28;20267;-74
2021/01/30 15:26:50;;;;;;;0.30;0.27;;;21.90;99.90;;;;;;20534543;28;20558;-76
2021/01/30 15:36:54;;;;;;;0.47;0.33;;;22.50;99.90;;;;;;20532882;28;20240;-78
2021/01/30 15:46:56;;;;;;;1.57;0.23;;;22.20;99.90;;;;;;20531747;28;20393;-71
2021/01/30 15:57:00;;;;;;;0.20;0.10;;;19.40;99.90;;;;;;20446803;28;20388;-73
2021/01/30 16:07:03;;;;;;;0.20;0.10;;;19.20;99.90;;;;;;20450441;28;20765;-75
2021/01/30 16:17:08;;;;;;;0.20;0.10;;;18.10;99.90;;;;;;20448292;28;20232;-72
2021/01/30 16:27:14;;;;;;;0.20;0.10;;;17.30;99.90;;;;;;20432047;28;20605;-75
2021/01/30 16:37:18;;;;;;;0.20;0.10;;;17.20;99.90;;;;;;20489891;28;20705;-74
2021/01/30 16:47:24;;;;;;;0.20;0.10;;;17.20;99.90;;;;;;20517638;28;20287;-73
2021/01/30 16:57:29;;;;;;;0.43;0.10;;;17.20;99.90;;;;;;20527734;28;20879;-73
2021/01/30 17:07:32;;;;;;;0.80;0.47;;;17.20;99.90;;;;;;20525363;28;20221;-73
2021/01/30 17:18:00;;;;;;;0.40;0.30;;;16.70;99.90;;;;;;20509383;28;20326;-74
2021/01/30 17:28:03;;;;;;;2.93;0.53;;;15.60;99.90;;;;;;20526446;28;20629;-74
2021/01/30 17:38:12;;;;;;;0.93;0.33;;;15.20;99.90;;;;;;20524916;28;20587;-75
2021/01/30 17:48:15;;;;;;;2.30;0.73;;;14.70;99.90;;;;;;20524234;28;20556;-75
2021/01/30 17:58:19;;;;;;;0.50;0.27;;;14.30;99.90;;;;;;20523187;28;20302;-75
2021/01/30 18:08:22;;;;;;;1.07;0.50;;;14.10;99.90;;;;;;20571122;23;20251;-73
2021/01/30 18:18:27;;;;;;;1.10;0.70;;;13.90;99.90;;;;;;20605636;28;20215;-75
2021/01/30 18:28:31;;;;;;;0.30;0.10;;;13.60;99.90;;;;;;20618454;28;20199;-74
2021/01/30 18:38:35;;;;;;;0.30;0.30;;;13.30;99.90;;;;;;20617413;28;20219;-76
2021/01/30 18:48:38;;;;;;;0.40;0.30;;;13.30;99.90;;;;;;20616081;28;20649;-75
2021/01/30 18:58:42;;;;;;;0.43;0.43;;;13.10;99.90;;;;;;20615593;28;20275;-76
2021/01/30 19:09:00;;;;;;;1.13;0.63;;;13.00;99.90;;;;;;20612249;28;20231;-74
2021/01/30 19:19:04;;;;;;;7.83;1.67;;;12.80;99.90;;;;;;20612436;28;20219;-72
2021/01/30 19:29:08;;;;;;;0.93;0.73;;;12.60;99.90;;;;;;20610412;28;20246;-73
2021/01/30 19:39:11;;;;;;;0.33;0.33;;;12.30;99.90;;;;;;20608566;28;20227;-78
2021/01/30 19:49:14;;;;;;;0.70;0.37;;;12.20;99.90;;;;;;20615235;28;20199;-77
2021/01/30 19:59:18;;;;;;;0.60;0.40;;;12.10;99.90;;;;;;20612006;28;20354;-78
2021/01/30 20:09:20;;;;;;;13.37;3.50;;;12.10;99.90;;;;;;20611336;28;20242;-77
2021/01/30 20:19:25;;;;;;;1.07;0.70;;;12.20;99.90;;;;;;20608491;28;20233;-77
2021/01/30 20:29:28;;;;;;;2.07;0.50;;;12.00;99.90;;;;;;20608807;28;20195;-76
2021/01/30 20:39:31;;;;;;;0.20;0.00;;;12.00;99.90;;;;;;20608290;28;20235;-76
2021/01/30 20:49:34;;;;;;;0.27;0.27;;;12.10;99.90;;;;;;20606018;28;20203;-78
2021/01/30 20:59:38;;;;;;;0.20;0.07;;;12.10;99.90;;;;;;20609032;28;20700;-76
2021/01/30 21:09:41;;;;;;;2.20;1.03;;;12.00;99.90;;;;;;20604617;28;20231;-76
2021/01/30 21:19:44;;;;;;;1.33;0.90;;;11.90;99.90;;;;;;20607151;28;20223;-76
2021/01/30 21:29:47;;;;;;;0.30;0.23;;;11.40;99.90;;;;;;20620266;28;20699;-75
2021/01/30 21:39:51;;;;;;;0.30;0.20;;;10.90;99.90;;;;;;20622894;28;20231;-77
2021/01/30 21:49:54;;;;;;;0.40;0.40;;;11.50;99.90;;;;;;20596692;28;20224;-76
2021/01/30 21:59:58;;;;;;;0.50;0.40;;;11.00;99.90;;;;;;20542614;28;20727;-74
2021/01/30 22:10:01;;;;;;;1.67;1.00;;;10.50;99.90;;;;;;20538612;28;20220;-74
2021/01/30 22:20:05;;;;;;;1.27;0.83;;;9.70;99.90;;;;;;20600815;28;20889;-73
2021/01/30 22:30:10;;;;;;;2.43;1.33;;;9.30;99.90;;;;;;20622325;28;20195;-72
2021/01/30 22:40:14;;;;;;;0.40;0.40;;;9.10;99.90;;;;;;20622766;28;20571;-72
2021/01/30 22:50:18;;;;;;;0.20;0.17;;;9.10;99.90;;;;;;20619751;28;20199;-74
2021/01/30 23:00:47;;;;;;;0.57;0.57;;;9.10;99.90;;;;;;20620693;28;20242;-74
2021/01/30 23:10:51;;;;;;;0.20;0.20;;;9.10;99.90;;;;;;20617670;28;20223;-72
2021/01/30 23:20:57;;;;;;;0.53;0.53;;;8.90;99.90;;;;;;20619534;28;20239;-72
2021/01/30 23:31:08;;;;;;;0.97;0.80;;;9.30;99.90;;;;;;20617039;28;20199;-72
2021/01/30 23:41:11;;;;;;;0.30;0.30;;;9.60;99.90;;;;;;20615656;28;20227;-72
2021/01/30 23:51:14;;;;;;;0.57;0.53;;;9.10;99.90;;;;;;20615621;28;20552;-72
